createdAt,value
2022-08-26T00:01:45.144Z,45.07
2022-08-26T00:04:12.594Z,44.95
2022-08-26T00:06:42.545Z,45.19
2022-08-26T00:09:13.644Z,45.38
2022-08-26T00:11:43.257Z,45.26
2022-08-26T00:14:09.869Z,45.30
2022-08-26T00:16:36.871Z,45.44
2022-08-26T00:19:08.122Z,45.48
2022-08-26T00:21:34.988Z,45.25
2022-08-26T00:24:04.442Z,45.04
2022-08-26T00:26:33.599Z,45.07
2022-08-26T00:29:00.198Z,45.34
2022-08-26T00:31:27.079Z,45.32
2022-08-26T00:33:53.835Z,45.31
2022-08-26T00:36:20.673Z,45.46
2022-08-26T00:38:48.063Z,45.42
2022-08-26T00:41:15.020Z,45.43
2022-08-26T00:43:46.435Z,45.79
2022-08-26T00:46:19.337Z,45.74
2022-08-26T00:48:49.414Z,45.83
2022-08-26T00:51:20.657Z,46.48
2022-08-26T00:54:01.947Z,47.00
2022-08-26T00:56:38.219Z,47.12
2022-08-26T00:59:08.225Z,47.09
2022-08-26T01:01:36.341Z,47.27
2022-08-26T01:04:03.217Z,46.95
2022-08-26T01:06:29.940Z,47.14
2022-08-26T01:08:57.515Z,47.67
2022-08-26T01:11:25.335Z,47.30
2022-08-26T01:13:59.135Z,47.33
2022-08-26T01:16:26.234Z,47.16
2022-08-26T01:18:56.561Z,47.17
2022-08-26T01:21:29.907Z,47.62
2022-08-26T01:23:58.759Z,48.20
2022-08-26T01:26:27.326Z,48.62
2022-08-26T01:28:56.682Z,49.17
2022-08-26T01:31:27.235Z,49.75
2022-08-26T01:34:27.793Z,49.66
2022-08-26T01:37:06.920Z,49.88
2022-08-26T01:39:35.683Z,50.61
2022-08-26T01:42:04.047Z,51.19
2022-08-26T01:44:45.199Z,51.04
2022-08-26T01:47:16.731Z,51.67
2022-08-26T01:49:46.481Z,52.02
2022-08-26T01:52:16.738Z,52.19
2022-08-26T01:54:43.507Z,52.63
2022-08-26T01:57:15.307Z,53.22
2022-08-26T01:59:42.527Z,53.13
2022-08-26T02:02:09.101Z,53.66
2022-08-26T02:04:43.831Z,53.86
2022-08-26T02:07:10.467Z,53.96
2022-08-26T02:09:41.423Z,53.87
2022-08-26T02:12:10.032Z,54.12
2022-08-26T02:14:44.003Z,53.88
2022-08-26T02:17:11.431Z,53.75
2022-08-26T02:19:42.953Z,53.71
2022-08-26T02:22:16.078Z,53.51
2022-08-26T02:24:49.474Z,53.64
2022-08-26T02:27:21.171Z,53.83
2022-08-26T02:29:55.523Z,54.32
2022-08-26T02:32:22.281Z,54.55
2022-08-26T02:34:50.272Z,54.88
2022-08-26T02:37:17.720Z,55.05
2022-08-26T02:39:44.620Z,55.55
2022-08-26T02:42:11.603Z,55.41
2022-08-26T02:44:38.247Z,55.46
2022-08-26T02:47:06.696Z,55.91
2022-08-26T02:49:34.551Z,55.93
2022-08-26T02:52:01.864Z,56.47
2022-08-26T02:54:28.875Z,56.43
2022-08-26T02:56:56.311Z,56.54
2022-08-26T02:59:24.476Z,56.92
2022-08-26T03:01:51.604Z,56.94
2022-08-26T03:04:18.820Z,57.12
2022-08-26T03:06:52.637Z,57.44
2022-08-26T03:09:19.887Z,57.58
2022-08-26T03:11:47.291Z,57.77
2022-08-26T03:14:13.986Z,57.85
2022-08-26T03:16:40.569Z,58.05
2022-08-26T03:19:08.899Z,58.02
2022-08-26T03:21:37.675Z,58.29
2022-08-26T03:24:04.832Z,58.31
2022-08-26T03:26:31.651Z,58.54
2022-08-26T03:29:17.091Z,58.49
2022-08-26T03:31:44.053Z,58.80
2022-08-26T03:34:14.014Z,58.56
2022-08-26T03:36:41.690Z,58.61
2022-08-26T03:39:08.514Z,59.29
2022-08-26T03:41:36.688Z,59.37
2022-08-26T03:44:06.077Z,59.92
2022-08-26T03:46:33.698Z,59.46
2022-08-26T03:49:01.463Z,59.69
2022-08-26T03:51:29.049Z,60.27
2022-08-26T03:53:56.106Z,60.46
2022-08-26T03:56:23.853Z,60.57
2022-08-26T04:01:17.827Z,61.19
2022-08-26T04:04:00.275Z,61.26
2022-08-26T04:06:39.425Z,61.22
2022-08-26T04:09:08.903Z,61.41
2022-08-26T04:11:38.779Z,61.69
2022-08-26T04:14:13.439Z,61.52
2022-08-26T04:16:41.873Z,61.82
2022-08-26T04:19:11.897Z,61.84
2022-08-26T04:21:40.572Z,62.12
2022-08-26T04:24:12.044Z,62.21
2022-08-26T04:26:42.625Z,62.34
2022-08-26T04:29:13.014Z,62.79
2022-08-26T04:31:39.698Z,62.72
2022-08-26T04:34:08.106Z,62.75
2022-08-26T04:36:38.188Z,63.28
2022-08-26T04:39:05.474Z,63.05
2022-08-26T04:41:32.710Z,63.04
2022-08-26T04:43:59.479Z,63.40
2022-08-26T04:46:26.099Z,63.44
2022-08-26T04:48:53.779Z,63.99
2022-08-26T04:51:27.247Z,64.03
2022-08-26T04:53:59.019Z,64.15
2022-08-26T04:56:27.754Z,64.36
2022-08-26T04:58:55.579Z,63.34
2022-08-26T05:01:22.712Z,62.34
2022-08-26T05:03:50.710Z,60.99
2022-08-26T05:06:19.592Z,60.24
2022-08-26T05:08:46.614Z,59.49
2022-08-26T05:11:13.685Z,59.01
2022-08-26T05:13:40.381Z,58.25
2022-08-26T05:16:11.864Z,57.77
2022-08-26T05:18:39.656Z,57.43
2022-08-26T05:21:07.139Z,56.83
2022-08-26T05:23:36.300Z,56.73
2022-08-26T05:26:08.019Z,56.41
2022-08-26T05:28:35.486Z,56.33
2022-08-26T05:31:12.971Z,56.05
2022-08-26T05:33:42.240Z,56.08
2022-08-26T05:36:15.851Z,55.84
2022-08-26T05:38:42.851Z,56.13
2022-08-26T05:41:20.730Z,56.28
2022-08-26T05:43:47.991Z,56.33
2022-08-26T05:46:15.648Z,56.36
2022-08-26T05:48:44.418Z,56.61
2022-08-26T05:51:12.330Z,57.88
2022-08-26T05:53:43.931Z,59.42
2022-08-26T05:56:24.869Z,60.39
2022-08-26T05:58:51.982Z,59.86
2022-08-26T06:01:21.607Z,59.55
2022-08-26T06:03:52.491Z,58.59
2022-08-26T06:06:27.398Z,58.77
2022-08-26T06:08:55.871Z,59.08
2022-08-26T06:11:27.291Z,59.60
2022-08-26T06:14:03.077Z,60.10
2022-08-26T06:16:32.236Z,60.20
2022-08-26T06:18:58.917Z,60.45
2022-08-26T06:21:32.389Z,60.06
2022-08-26T06:24:27.033Z,59.55
2022-08-26T06:26:56.501Z,58.92
2022-08-26T06:29:25.833Z,58.69
2022-08-26T06:31:56.556Z,58.25
2022-08-26T06:34:26.740Z,57.46
2022-08-26T06:36:58.673Z,57.51
2022-08-26T06:39:25.474Z,57.43
2022-08-26T06:41:52.188Z,57.14
2022-08-26T06:44:19.565Z,56.72
2022-08-26T06:46:50.372Z,57.28
2022-08-26T06:49:17.851Z,58.07
2022-08-26T06:51:44.461Z,58.13
2022-08-26T06:54:11.237Z,58.27
2022-08-26T06:56:46.673Z,58.23
2022-08-26T06:59:15.372Z,58.31
2022-08-26T07:01:46.697Z,58.33
2022-08-26T07:04:20.200Z,58.06
2022-08-26T07:06:52.908Z,57.63
2022-08-26T07:09:24.970Z,57.55
2022-08-26T07:11:52.666Z,57.58
2022-08-26T07:14:21.466Z,57.76
2022-08-26T07:16:49.537Z,57.88
2022-08-26T07:19:30.545Z,57.64
2022-08-26T07:22:02.430Z,58.00
2022-08-26T07:24:31.217Z,58.08
2022-08-26T07:27:01.667Z,58.32
2022-08-26T07:29:30.210Z,58.41
2022-08-26T07:31:58.223Z,58.14
2022-08-26T07:34:25.365Z,58.38
2022-08-26T07:36:53.323Z,58.22
2022-08-26T07:39:22.914Z,58.12
2022-08-26T07:41:49.536Z,58.09
2022-08-26T07:44:16.754Z,58.01
2022-08-26T07:46:44.115Z,57.82
2022-08-26T07:49:12.318Z,57.87
2022-08-26T07:51:39.716Z,57.87
2022-08-26T07:54:07.195Z,57.57
2022-08-26T07:56:33.993Z,57.52
2022-08-26T07:59:00.805Z,57.08
2022-08-26T08:01:29.680Z,56.99
2022-08-26T08:03:57.602Z,57.10
2022-08-26T08:06:27.301Z,56.74
2022-08-26T08:08:55.552Z,56.72
2022-08-26T08:11:23.662Z,56.53
2022-08-26T08:13:56.537Z,56.42
2022-08-26T08:16:32.398Z,56.06
2022-08-26T08:19:00.348Z,55.85
2022-08-26T08:21:27.367Z,55.54
2022-08-26T08:23:57.221Z,55.39
2022-08-26T08:26:25.655Z,55.33
2022-08-26T08:28:57.224Z,55.22
2022-08-26T08:31:55.825Z,55.19
2022-08-26T08:34:16.878Z,54.94
2022-08-26T08:36:46.347Z,55.73
2022-08-26T08:39:13.762Z,55.60
2022-08-26T08:41:49.874Z,55.46
2022-08-26T08:46:58.370Z,54.83
2022-08-26T08:49:25.998Z,54.84
2022-08-26T08:52:10.785Z,54.75
2022-08-26T08:54:38.211Z,55.00
2022-08-26T08:57:12.629Z,54.49
2022-08-26T08:59:53.273Z,53.67
2022-08-26T09:02:35.763Z,53.87
2022-08-26T09:05:23.246Z,53.98
2022-08-26T09:07:57.703Z,53.14
2022-08-26T09:10:30.612Z,53.22
2022-08-26T09:12:57.700Z,53.27
2022-08-26T09:15:45.811Z,53.24
2022-08-26T09:18:39.671Z,52.87
2022-08-26T09:21:12.386Z,52.66
2022-08-26T09:23:42.866Z,52.58
2022-08-26T09:26:18.505Z,52.41
2022-08-26T09:28:57.163Z,52.74
2022-08-26T09:31:27.620Z,52.51
2022-08-26T09:34:17.356Z,52.64
2022-08-26T09:36:48.574Z,52.45
2022-08-26T09:39:29.207Z,52.04
2022-08-26T09:42:01.724Z,52.22
2022-08-26T09:44:29.297Z,52.48
2022-08-26T09:46:59.631Z,51.93
2022-08-26T09:49:31.634Z,52.12
2022-08-26T09:52:23.753Z,51.75
2022-08-26T09:55:20.033Z,51.93
2022-08-26T09:57:51.563Z,51.78
2022-08-26T10:00:31.946Z,51.56
2022-08-26T10:03:02.801Z,50.86
2022-08-26T10:05:42.637Z,50.77
2022-08-26T10:08:31.728Z,50.33
2022-08-26T10:11:02.373Z,50.01
2022-08-26T10:13:35.481Z,50.06
2022-08-26T10:16:18.892Z,49.99
2022-08-26T10:19:00.477Z,49.33
2022-08-26T10:21:32.768Z,49.17
2022-08-26T10:24:02.112Z,48.80
2022-08-26T10:26:34.486Z,48.88
2022-08-26T10:29:12.341Z,48.82
2022-08-26T10:31:51.434Z,48.95
2022-08-26T10:34:19.281Z,48.80
2022-08-26T10:37:14.503Z,49.05
2022-08-26T10:39:58.946Z,48.88
2022-08-26T10:42:44.543Z,48.73
2022-08-26T10:45:19.864Z,48.27
2022-08-26T10:47:50.400Z,47.75
2022-08-26T10:50:18.099Z,47.88
2022-08-26T10:52:51.194Z,48.10
2022-08-26T10:55:35.530Z,47.71
2022-08-26T10:58:39.219Z,47.99
2022-08-26T11:01:40.816Z,47.94
2022-08-26T11:04:07.635Z,47.78
2022-08-26T11:06:34.451Z,47.63
2022-08-26T11:09:08.742Z,47.30
2022-08-26T11:11:41.023Z,47.20
2022-08-26T11:14:31.418Z,47.29
2022-08-26T11:17:09.481Z,47.24
2022-08-26T11:19:59.354Z,47.20
2022-08-26T11:22:47.946Z,46.94
2022-08-26T11:25:30.086Z,46.79
2022-08-26T11:28:00.903Z,46.51
2022-08-26T11:30:42.716Z,46.60
2022-08-26T11:33:10.048Z,46.45
2022-08-26T11:35:37.354Z,46.67
2022-08-26T11:38:29.456Z,46.41
2022-08-26T11:41:09.228Z,46.42
2022-08-26T11:43:37.700Z,45.88
2022-08-26T11:46:09.229Z,45.67
2022-08-26T11:48:44.110Z,45.22
2022-08-26T11:51:22.984Z,45.36
2022-08-26T11:53:49.671Z,45.63
2022-08-26T11:56:26.211Z,45.34
2022-08-26T11:58:58.351Z,45.14
2022-08-26T12:01:32.237Z,44.44
2022-08-26T12:04:00.112Z,43.92
2022-08-26T12:06:45.058Z,43.49
2022-08-26T12:09:22.380Z,43.22
2022-08-26T12:11:49.492Z,42.72
2022-08-26T12:14:22.756Z,42.08
2022-08-26T12:16:51.943Z,42.63
2022-08-26T12:19:29.425Z,42.47
2022-08-26T12:22:18.251Z,42.83
2022-08-26T12:24:51.585Z,42.91
2022-08-26T12:27:32.455Z,43.11
2022-08-26T12:30:02.693Z,43.37
2022-08-26T12:32:31.490Z,43.92
2022-08-26T12:37:37.838Z,44.85
2022-08-26T12:40:33.307Z,45.03
2022-08-26T12:43:02.551Z,44.92
2022-08-26T12:45:39.504Z,44.78
2022-08-26T12:48:10.630Z,45.23
2022-08-26T12:50:44.284Z,45.41
2022-08-26T12:53:10.854Z,45.60
2022-08-26T12:55:50.572Z,46.01
2022-08-26T12:58:31.810Z,46.14
2022-08-26T13:01:20.321Z,46.13
2022-08-26T13:03:47.102Z,46.19
2022-08-26T13:06:22.859Z,46.05
2022-08-26T13:08:53.954Z,46.01
2022-08-26T13:11:25.113Z,46.00
2022-08-26T13:13:55.757Z,46.03
2022-08-26T13:16:23.953Z,46.36
2022-08-26T13:18:54.710Z,46.17
2022-08-26T13:21:24.498Z,46.04
2022-08-26T13:23:51.760Z,46.02
2022-08-26T13:26:18.923Z,45.93
2022-08-26T13:28:45.679Z,46.06
2022-08-26T13:31:30.230Z,46.07
2022-08-26T13:33:57.429Z,46.70
2022-08-26T13:36:24.650Z,47.23
2022-08-26T13:38:51.992Z,47.55
2022-08-26T13:41:19.307Z,47.61
2022-08-26T13:43:56.488Z,48.00
2022-08-26T13:46:24.134Z,48.13
2022-08-26T13:48:50.745Z,48.37
2022-08-26T13:51:18.672Z,48.51
2022-08-26T13:53:45.358Z,48.78
2022-08-26T13:56:12.093Z,48.91
2022-08-26T13:58:38.703Z,49.03
2022-08-26T14:01:05.327Z,49.05
2022-08-26T14:03:32.301Z,48.93
2022-08-26T14:05:59.409Z,49.48
2022-08-26T14:08:26.084Z,49.96
2022-08-26T14:10:52.772Z,49.81
2022-08-26T14:13:19.573Z,49.58
2022-08-26T14:15:46.803Z,50.14
2022-08-26T14:18:17.018Z,50.31
2022-08-26T14:20:49.679Z,50.45
2022-08-26T14:23:17.912Z,50.03
2022-08-26T14:25:44.984Z,49.79
2022-08-26T14:28:12.163Z,49.63
2022-08-26T14:30:43.750Z,49.43
2022-08-26T14:33:13.586Z,48.73
2022-08-26T14:35:41.471Z,47.20
2022-08-26T14:38:16.547Z,45.84
2022-08-26T14:40:47.014Z,46.22
2022-08-26T14:43:15.811Z,46.67
2022-08-26T14:45:45.211Z,47.37
2022-08-26T14:48:11.918Z,47.76
2022-08-26T14:50:38.784Z,48.27
2022-08-26T14:53:24.111Z,48.51
2022-08-26T14:55:50.831Z,48.98
2022-08-26T14:58:17.430Z,49.48
2022-08-26T15:00:44.197Z,49.33
2022-08-26T15:03:10.923Z,49.61
2022-08-26T15:05:38.256Z,49.67
2022-08-26T15:08:10.573Z,49.93
2022-08-26T15:10:37.542Z,50.40
2022-08-26T15:13:04.625Z,50.21
2022-08-26T15:15:31.312Z,50.26
2022-08-26T15:17:57.959Z,50.36
2022-08-26T15:20:24.901Z,50.76
2022-08-26T15:22:51.707Z,50.98
2022-08-26T15:25:20.050Z,51.13
2022-08-26T15:27:47.814Z,51.00
2022-08-26T15:30:16.250Z,50.99
2022-08-26T15:32:43.031Z,50.71
2022-08-26T15:35:09.660Z,50.61
2022-08-26T15:37:36.820Z,50.63
2022-08-26T15:40:05.094Z,50.89
2022-08-26T15:42:31.773Z,50.97
2022-08-26T15:44:58.430Z,51.39
2022-08-26T15:47:25.132Z,51.41
2022-08-26T15:49:51.722Z,51.04
2022-08-26T15:52:18.558Z,51.41
2022-08-26T15:54:45.215Z,51.29
2022-08-26T15:57:14.401Z,51.43
2022-08-26T15:59:42.008Z,51.14
2022-08-26T16:02:09.182Z,51.05
2022-08-26T16:04:36.125Z,51.31
2022-08-26T16:07:03.587Z,51.10
2022-08-26T16:09:30.800Z,50.90
2022-08-26T16:11:58.120Z,50.95
2022-08-26T16:14:25.576Z,51.00
2022-08-26T16:16:52.297Z,51.05
2022-08-26T16:19:19.365Z,51.06
2022-08-26T16:21:46.105Z,51.01
2022-08-26T16:24:13.122Z,51.47
2022-08-26T16:26:42.247Z,51.64
2022-08-26T16:29:11.511Z,51.64
2022-08-26T16:31:38.710Z,51.66
2022-08-26T16:34:06.575Z,51.81
2022-08-26T16:36:33.361Z,51.63
2022-08-26T16:39:00.034Z,51.87
2022-08-26T16:41:28.930Z,51.73
2022-08-26T16:43:56.283Z,51.89
2022-08-26T16:46:25.885Z,52.02
2022-08-26T16:48:55.130Z,51.87
2022-08-26T16:51:23.139Z,52.07
2022-08-26T16:53:51.704Z,52.23
2022-08-26T16:56:21.409Z,52.09
2022-08-26T16:58:48.420Z,52.28
2022-08-26T17:01:15.997Z,52.37
2022-08-26T17:03:42.935Z,52.53
2022-08-26T17:06:09.985Z,52.59
2022-08-26T17:08:38.117Z,52.56
2022-08-26T17:11:04.978Z,52.69
2022-08-26T17:13:35.221Z,52.83
2022-08-26T17:16:05.118Z,52.95
2022-08-26T17:18:33.436Z,53.05
2022-08-26T17:21:05.043Z,52.87
2022-08-26T17:23:31.746Z,53.12
2022-08-26T17:25:58.436Z,53.27
2022-08-26T17:28:25.030Z,53.29
2022-08-26T17:30:51.648Z,53.54
2022-08-26T17:33:21.957Z,53.25
2022-08-26T17:35:51.316Z,53.58
2022-08-26T17:38:17.886Z,53.95
2022-08-26T17:40:44.551Z,54.08
2022-08-26T17:43:12.514Z,54.31
2022-08-26T17:45:40.397Z,54.63
2022-08-26T17:48:07.990Z,54.77
2022-08-26T17:50:34.756Z,54.87
2022-08-26T17:53:01.473Z,55.18
2022-08-26T17:55:28.358Z,55.37
2022-08-26T17:57:54.932Z,55.58
2022-08-26T18:00:26.350Z,55.67
2022-08-26T18:02:56.436Z,55.79
2022-08-26T18:05:23.502Z,55.93
2022-08-26T18:07:50.163Z,56.29
2022-08-26T18:10:18.649Z,56.28
2022-08-26T18:12:45.517Z,56.56
2022-08-26T18:15:13.935Z,56.42
2022-08-26T18:17:40.854Z,56.92
2022-08-26T18:20:10.160Z,56.67
2022-08-26T18:22:36.736Z,56.93
2022-08-26T18:25:05.064Z,57.38
2022-08-26T18:27:31.631Z,57.76
2022-08-26T18:29:58.361Z,57.64
2022-08-26T18:32:24.913Z,57.46
2022-08-26T18:34:51.513Z,57.79
2022-08-26T18:37:18.084Z,57.89
2022-08-26T18:39:44.734Z,57.77
2022-08-26T18:42:11.328Z,57.95
2022-08-26T18:44:37.990Z,57.82
2022-08-26T18:47:04.778Z,57.92
2022-08-26T18:49:31.548Z,57.88
2022-08-26T18:51:58.091Z,57.88
2022-08-26T18:54:24.803Z,58.06
2022-08-26T18:56:51.765Z,58.08
2022-08-26T18:59:18.540Z,58.17
2022-08-26T19:01:45.625Z,58.27
2022-08-26T19:04:14.709Z,58.44
2022-08-26T19:06:42.508Z,58.20
2022-08-26T19:09:10.670Z,58.18
2022-08-26T19:11:42.735Z,57.93
2022-08-26T19:14:13.608Z,58.25
2022-08-26T19:16:43.069Z,58.35
2022-08-26T19:19:09.887Z,58.42
2022-08-26T19:21:37.227Z,58.30
2022-08-26T19:24:09.353Z,58.77
2022-08-26T19:26:36.603Z,58.82
2022-08-26T19:29:03.471Z,58.92
2022-08-26T19:31:30.205Z,59.00
2022-08-26T19:33:58.046Z,59.49
2022-08-26T19:36:26.156Z,59.50
2022-08-26T19:38:53.049Z,59.56
2022-08-26T19:41:34.106Z,60.09
2022-08-26T19:44:10.214Z,60.30
2022-08-26T19:49:08.994Z,60.19
2022-08-26T19:51:36.646Z,60.40
2022-08-26T19:54:04.320Z,59.96
2022-08-26T19:56:31.430Z,60.29
2022-08-26T19:58:58.380Z,60.09
2022-08-26T20:01:25.752Z,60.10
2022-08-26T20:03:53.141Z,60.08
2022-08-26T20:06:20.348Z,60.22
2022-08-26T20:08:47.789Z,59.81
2022-08-26T20:11:17.865Z,59.77
2022-08-26T20:13:46.774Z,60.01
2022-08-26T20:16:14.285Z,59.88
2022-08-26T20:19:01.923Z,59.71
2022-08-26T20:21:31.653Z,59.97
2022-08-26T20:24:03.409Z,59.83
2022-08-26T20:26:32.528Z,59.89
2022-08-26T20:28:59.315Z,59.89
2022-08-26T20:31:26.870Z,59.92
2022-08-26T20:33:54.281Z,60.01
2022-08-26T20:36:24.260Z,59.91
2022-08-26T20:38:50.951Z,60.03
2022-08-26T20:41:17.826Z,60.23
2022-08-26T20:43:45.122Z,60.10
2022-08-26T20:46:17.420Z,60.04
2022-08-26T20:48:46.866Z,60.18
2022-08-26T20:51:13.580Z,60.25
2022-08-26T20:53:40.434Z,60.50
2022-08-26T20:56:09.810Z,60.59
2022-08-26T20:58:37.325Z,60.61
2022-08-26T21:01:07.979Z,60.39
2022-08-26T21:03:36.149Z,60.28
2022-08-26T21:06:03.812Z,60.34
2022-08-26T21:08:33.328Z,60.16
2022-08-26T21:11:00.916Z,60.39
2022-08-26T21:13:35.802Z,60.31
2022-08-26T21:16:11.267Z,60.58
2022-08-26T21:18:38.822Z,60.54
2022-08-26T21:21:07.617Z,60.64
2022-08-26T21:23:35.509Z,60.79
2022-08-26T21:26:07.548Z,60.65
2022-08-26T21:28:35.815Z,60.96
2022-08-26T21:31:04.147Z,61.23
2022-08-26T21:33:30.830Z,61.41
2022-08-26T21:35:57.595Z,61.65
2022-08-26T21:38:24.230Z,61.70
2022-08-26T21:41:02.172Z,61.87
2022-08-26T21:43:35.299Z,62.22
2022-08-26T21:46:11.704Z,62.22
2022-08-26T21:48:44.918Z,61.81
2022-08-26T21:51:16.175Z,62.09
2022-08-26T21:53:43.314Z,62.08
2022-08-26T21:56:14.759Z,61.88
2022-08-26T21:58:41.641Z,61.89
2022-08-26T22:01:11.020Z,62.06
2022-08-26T22:03:40.700Z,62.11
2022-08-26T22:06:14.660Z,61.89
2022-08-26T22:08:41.270Z,61.71
2022-08-26T22:11:09.409Z,61.89
2022-08-26T22:13:38.161Z,61.71
2022-08-26T22:16:06.522Z,62.07
2022-08-26T22:18:34.436Z,61.80
2022-08-26T22:21:05.220Z,61.87
2022-08-26T22:23:32.199Z,61.51
2022-08-26T22:25:59.955Z,61.69
2022-08-26T22:28:28.214Z,61.27
2022-08-26T22:30:55.686Z,61.23
2022-08-26T22:33:23.113Z,61.36
2022-08-26T22:35:52.497Z,61.37
2022-08-26T22:38:20.671Z,61.29
2022-08-26T22:40:56.178Z,61.52
2022-08-26T22:43:24.227Z,61.63
2022-08-26T22:45:52.982Z,61.64
2022-08-26T22:48:22.066Z,61.38
2022-08-26T22:50:49.982Z,61.67
2022-08-26T22:53:17.560Z,61.31
2022-08-26T22:55:45.160Z,61.73
2022-08-26T22:58:14.520Z,61.94
2022-08-26T23:00:42.753Z,61.90
2022-08-26T23:03:11.431Z,62.05
2022-08-26T23:05:39.496Z,62.25
2022-08-26T23:08:06.941Z,62.05
2022-08-26T23:10:33.699Z,62.18
2022-08-26T23:13:00.308Z,62.25
2022-08-26T23:15:27.069Z,62.34
2022-08-26T23:18:03.141Z,62.51
2022-08-26T23:20:30.752Z,62.40
2022-08-26T23:22:57.521Z,62.42
2022-08-26T23:25:24.819Z,62.05
2022-08-26T23:27:52.026Z,62.19
2022-08-26T23:30:22.851Z,62.10
2022-08-26T23:32:49.510Z,62.03
2022-08-26T23:35:19.496Z,61.82
2022-08-26T23:37:48.487Z,61.95
2022-08-26T23:40:20.023Z,62.08
2022-08-26T23:42:46.678Z,62.54
2022-08-26T23:45:14.601Z,62.20
2022-08-26T23:47:41.423Z,62.30
2022-08-26T23:50:08.901Z,62.53
2022-08-26T23:52:54.498Z,62.39
2022-08-26T23:55:21.406Z,62.49
2022-08-26T23:57:48.074Z,62.60
